SLCB

Jorge Wilsterman International Airport

Airport
ICAO code
SLCB
IATA Code
CBB
Summary
ICAO Region
CARSAM
ICAO Territory
Location

Cochabamba, Cochabamba

Serving
Cochabamba
Elevation
8360 ft
Coordinates
17° 25' 16" S , 66° 10' 38" W
KCC
BSk
Metar
Observation
SLCB 101000Z 13003KT 9999 NSC 05/M06 Q1031
Station
Cochabamba
Date/Time
2022-08-10 10:00:00
Wind direction
130°
Wind speed
03 kts
Lowest cloud amount
nil significant cloud
Temperature
5°C
Dew point
-6°C
Humidity
44%
QNH
1031 hPa
Weather condition
n/a

A high elevation international airport serving Cochabamba, the capital of the Cochabamba Department of Bolivia.

Climatology

Semi-arid climate (Köppen climate classification BSk).

Runways

Designator Length Width Surface Rops
4/22 2649 45 ASP Yes/Yes
14/32 3798 45 ASP Yes/Yes

Airport map

Aerial View

SKYbrary Partners:

Safety knowledge contributed by: